Terminal Aerodrome Forecast
Issued by NWS Atlanta, GA

Home | Current Version | Previous Version | Text Only | Print | Product List | Glossary On
Versions: 1 2 3 4 5 6 7 8 9 10 11 12 13 14 15 16 17 18 19 20 21 22 23 24 25 26 27 28 29 30 31 32 33 34 35 36 37 38
000
FTUS42 KFFC 092300
TAFATL
TAF
KATL 092334Z 1000/1106 30008KT P6SM VCSH SCT050 BKN150
     FM100600 27003KT P6SM BKN025
     FM101400 28005KT P6SM BKN045 PROB30 1015/1021 -TSRA BKN040CB
     FM102200 28006KT P6SM VCSH SCT045 BKN250
     FM110200 27005KT P6SM SCT250=

USA.gov is the U.S. government's official web portal to all federal, state and local government web resources and services.